Time;durP1;ratioP1;P1;durP2;ratioP2;P2;SDS_P1;SDS_P2;PMS_P1;PMS_P2;Temp;Humidity;BMP_temperature;BMP_pressure;BME280_temperature;BME280_humidity;BME280_pressure;Samples;Min_cycle;Max_cycle;Signal;HPM_P1;HPM_P2
2022/05/04 00:00:49;;;;;;;6.70;5.43;;;16.40;94.80;;;;;;4996094;28;20230;-68
2022/05/04 00:03:15;;;;;;;5.90;5.37;;;16.50;95.00;;;;;;5006175;28;20226;-67
2022/05/04 00:05:41;;;;;;;7.43;5.50;;;16.50;95.00;;;;;;4988738;28;20229;-67
2022/05/04 00:08:07;;;;;;;6.10;5.50;;;16.50;94.90;;;;;;4989276;28;20222;-67
2022/05/04 00:10:34;;;;;;;5.53;5.00;;;16.50;94.40;;;;;;4990379;28;20229;-67
2022/05/04 00:13:01;;;;;;;5.43;4.93;;;16.50;94.40;;;;;;4989545;28;20472;-67
2022/05/04 00:15:27;;;;;;;7.17;5.80;;;16.50;94.50;;;;;;4970049;28;20513;-67
2022/05/04 00:17:53;;;;;;;6.27;5.47;;;16.50;94.70;;;;;;5001972;28;20533;-67
2022/05/04 00:20:19;;;;;;;5.70;5.20;;;16.50;94.80;;;;;;4991183;28;20453;-66
2022/05/04 00:22:45;;;;;;;7.43;6.50;;;16.50;94.70;;;;;;4990351;28;20633;-67
2022/05/04 00:25:11;;;;;;;5.90;5.40;;;16.50;94.80;;;;;;4990261;28;20314;-67
2022/05/04 00:27:40;;;;;;;6.20;5.60;;;16.40;94.70;;;;;;4988284;28;20226;-67
2022/05/04 00:30:06;;;;;;;6.23;5.60;;;16.40;94.80;;;;;;4989275;28;20453;-68
2022/05/04 00:32:32;;;;;;;6.00;5.23;;;16.40;94.90;;;;;;4993770;28;20494;-66
2022/05/04 00:34:58;;;;;;;9.30;5.63;;;16.40;94.70;;;;;;4988499;28;20848;-68
2022/05/04 00:37:24;;;;;;;6.07;5.47;;;16.40;94.70;;;;;;4990344;28;20489;-68
2022/05/04 00:39:50;;;;;;;8.60;6.00;;;16.40;94.80;;;;;;4989041;28;20237;-68
2022/05/04 00:42:19;;;;;;;10.03;6.97;;;16.40;94.90;;;;;;4990394;28;20464;-67
2022/05/04 00:44:49;;;;;;;5.97;5.47;;;16.30;94.60;;;;;;4994249;28;20461;-68
2022/05/04 00:47:15;;;;;;;5.17;4.67;;;16.30;94.70;;;;;;4976956;28;20458;-67
2022/05/04 00:49:43;;;;;;;6.17;5.57;;;16.30;94.80;;;;;;4968918;28;20498;-68
2022/05/04 00:52:14;;;;;;;6.40;5.40;;;16.30;94.80;;;;;;4981320;28;20476;-67
2022/05/04 00:54:43;;;;;;;5.90;5.30;;;16.30;94.50;;;;;;4988565;28;20464;-67
2022/05/04 00:57:09;;;;;;;8.93;6.43;;;16.20;94.40;;;;;;4973037;28;20454;-67
2022/05/04 00:59:37;;;;;;;5.50;5.00;;;16.10;94.30;;;;;;4989017;28;20464;-68
2022/05/04 01:02:04;;;;;;;6.73;6.03;;;16.10;94.50;;;;;;4976597;28;20515;-67
2022/05/04 01:04:31;;;;;;;6.00;5.40;;;16.10;94.50;;;;;;5004458;28;20472;-68
2022/05/04 01:06:57;;;;;;;6.47;5.87;;;16.10;94.50;;;;;;4991440;28;20464;-67
2022/05/04 01:09:22;;;;;;;7.00;5.60;;;16.10;94.50;;;;;;5007241;28;20469;-67
2022/05/04 01:11:49;;;;;;;6.17;5.03;;;16.10;94.60;;;;;;4992354;28;20226;-67
2022/05/04 01:14:16;;;;;;;6.50;5.90;;;16.10;94.60;;;;;;4992482;28;20225;-67
2022/05/04 01:16:44;;;;;;;6.00;5.40;;;16.10;94.70;;;;;;4993564;28;20448;-67
2022/05/04 01:19:11;;;;;;;6.00;5.50;;;16.10;94.60;;;;;;4993522;28;20471;-67
2022/05/04 01:21:37;;;;;;;6.50;5.80;;;16.10;94.70;;;;;;4993292;28;20453;-68
2022/05/04 01:24:03;;;;;;;6.53;5.93;;;16.00;94.70;;;;;;4992182;28;20831;-68
2022/05/04 01:26:30;;;;;;;5.53;5.03;;;16.00;94.70;;;;;;5008426;28;20746;-69
2022/05/04 01:28:56;;;;;;;6.40;5.73;;;16.00;94.70;;;;;;5007847;28;20491;-68
2022/05/04 01:31:23;;;;;;;6.07;5.30;;;16.00;94.80;;;;;;4992301;28;20457;-67
2022/05/04 01:33:48;;;;;;;7.07;6.40;;;16.00;94.70;;;;;;4991393;28;20313;-67
2022/05/04 01:36:14;;;;;;;6.23;5.63;;;15.90;94.60;;;;;;4989332;28;21092;-68
2022/05/04 01:38:40;;;;;;;6.97;6.37;;;15.90;94.60;;;;;;4987515;28;20233;-68
2022/05/04 01:42:02;;;;;;;7.50;5.40;;;15.90;94.70;;;;;;5008834;28;20225;-68
2022/05/04 01:43:51;;;;;;;8.33;5.30;;;15.90;94.70;;;;;;4991886;28;20221;-68
2022/05/04 01:46:17;;;;;;;7.10;5.87;;;15.80;94.70;;;;;;4991791;28;20465;-68
2022/05/04 01:48:43;;;;;;;8.60;5.50;;;15.80;94.70;;;;;;4972667;28;20740;-68
2022/05/04 01:51:09;;;;;;;6.30;5.70;;;15.80;94.70;;;;;;4989321;28;20218;-67
2022/05/04 01:53:35;;;;;;;6.50;5.90;;;15.70;94.60;;;;;;4955605;28;20484;-65
2022/05/04 01:56:06;;;;;;;8.00;6.60;;;15.60;94.70;;;;;;4974259;28;20298;-68
2022/05/04 01:58:32;;;;;;;6.00;5.23;;;15.60;94.90;;;;;;4972264;28;20230;-68
2022/05/04 02:00:58;;;;;;;6.10;5.53;;;15.60;94.90;;;;;;4972666;28;20458;-67
2022/05/04 02:03:24;;;;;;;6.47;5.10;;;15.60;94.90;;;;;;4972613;28;20238;-67
2022/05/04 02:05:50;;;;;;;7.20;5.80;;;15.60;94.90;;;;;;4972889;28;20465;-67
2022/05/04 02:08:16;;;;;;;6.50;5.70;;;15.50;94.80;;;;;;4972117;28;20536;-67
2022/05/04 02:10:42;;;;;;;8.10;5.97;;;15.50;94.90;;;;;;4971782;28;20338;-67
2022/05/04 02:13:08;;;;;;;6.87;6.07;;;15.40;95.00;;;;;;4972275;28;21204;-67
2022/05/04 02:15:33;;;;;;;6.67;6.07;;;15.20;95.10;;;;;;4962114;28;20474;-67
2022/05/04 02:17:59;;;;;;;6.53;5.93;;;15.30;95.20;;;;;;4971131;28;20264;-68
2022/05/04 02:20:25;;;;;;;7.13;5.83;;;15.20;95.20;;;;;;4963682;28;20222;-67
2022/05/04 02:22:51;;;;;;;6.30;5.70;;;15.10;95.30;;;;;;4971576;28;20663;-67
2022/05/04 02:25:17;;;;;;;6.43;5.70;;;15.00;95.30;;;;;;4954592;28;20219;-67
2022/05/04 02:27:43;;;;;;;7.00;6.30;;;15.10;95.40;;;;;;4988250;28;20519;-65
2022/05/04 02:30:09;;;;;;;6.50;5.67;;;15.20;95.40;;;;;;4992310;28;20229;-68
2022/05/04 02:32:35;;;;;;;8.13;6.30;;;15.20;95.40;;;;;;4991882;28;20717;-66
2022/05/04 02:38:00;;;;;;;10.33;6.60;;;15.00;95.10;;;;;;5000933;28;20218;-66
2022/05/04 02:40:26;;;;;;;6.87;5.30;;;14.90;95.20;;;;;;5007101;28;20480;-68
2022/05/04 02:42:53;;;;;;;6.33;5.27;;;14.90;95.40;;;;;;4990319;28;20555;-68
2022/05/04 02:45:19;;;;;;;5.97;5.47;;;14.80;95.50;;;;;;4989054;28;20222;-68
2022/05/04 02:47:45;;;;;;;7.70;5.70;;;14.80;95.50;;;;;;5004716;28;20476;-66
2022/05/04 02:50:10;;;;;;;6.23;5.63;;;14.80;95.70;;;;;;4990698;28;20221;-67
2022/05/04 02:52:36;;;;;;;5.80;4.97;;;14.80;95.60;;;;;;5008473;28;20292;-67
2022/05/04 02:55:03;;;;;;;6.20;5.00;;;14.80;95.60;;;;;;4990878;28;20257;-67
2022/05/04 02:57:29;;;;;;;8.10;5.53;;;14.70;95.60;;;;;;4990023;28;20237;-67
2022/05/04 02:59:54;;;;;;;6.17;5.33;;;14.80;95.60;;;;;;5006154;28;20487;-67
2022/05/04 03:02:29;;;;;;;5.80;5.20;;;14.80;95.30;;;;;;4990471;28;20219;-67
2022/05/04 03:04:57;;;;;;;7.40;6.10;;;14.80;95.10;;;;;;4988806;28;20233;-67
2022/05/04 03:07:23;;;;;;;8.23;5.40;;;14.80;95.20;;;;;;4991402;28;20508;-67
2022/05/04 03:09:49;;;;;;;5.70;5.00;;;14.80;95.40;;;;;;4991762;28;20492;-65
2022/05/04 03:12:15;;;;;;;7.20;5.70;;;14.80;95.30;;;;;;4990992;28;20585;-67
2022/05/04 03:14:41;;;;;;;6.17;5.60;;;14.80;95.30;;;;;;4987368;28;20252;-67
2022/05/04 03:17:07;;;;;;;7.00;4.57;;;14.80;95.40;;;;;;4990187;28;20484;-67
2022/05/04 03:19:32;;;;;;;5.63;5.07;;;14.80;95.20;;;;;;4983095;28;20699;-66
2022/05/04 03:21:58;;;;;;;6.90;5.10;;;14.80;95.60;;;;;;4968563;28;20477;-68
2022/05/04 03:24:23;;;;;;;5.43;4.70;;;14.80;95.30;;;;;;4968159;28;20242;-67
2022/05/04 03:26:49;;;;;;;4.70;4.23;;;14.80;95.30;;;;;;4967061;28;20691;-66
2022/05/04 03:29:16;;;;;;;5.20;4.70;;;14.70;95.40;;;;;;4966778;28;20717;-68
2022/05/04 03:31:41;;;;;;;4.90;4.37;;;14.70;95.60;;;;;;4967392;28;20219;-67
2022/05/04 03:34:07;;;;;;;6.33;5.37;;;14.70;95.30;;;;;;4965622;28;20450;-68
2022/05/04 03:36:37;;;;;;;5.10;4.60;;;14.70;95.40;;;;;;4970824;28;20232;-67
2022/05/04 03:39:04;;;;;;;5.10;4.63;;;14.70;95.40;;;;;;4969889;28;20227;-67
2022/05/04 03:41:29;;;;;;;5.70;5.10;;;14.60;95.10;;;;;;4970995;28;20470;-67
2022/05/04 03:43:55;;;;;;;5.27;4.77;;;14.60;95.40;;;;;;4969469;28;20545;-67
2022/05/04 03:46:23;;;;;;;8.37;5.80;;;14.60;95.40;;;;;;4969825;28;20717;-67
2022/05/04 03:48:54;;;;;;;6.10;5.17;;;14.60;95.30;;;;;;4970165;28;20226;-67
2022/05/04 03:51:21;;;;;;;6.57;5.57;;;14.50;95.20;;;;;;4956290;28;20482;-67
2022/05/04 03:53:52;;;;;;;5.00;4.50;;;14.50;95.30;;;;;;4985937;28;20490;-67
2022/05/04 03:56:18;;;;;;;5.87;5.37;;;14.50;95.50;;;;;;4970530;28;20462;-68
2022/05/04 03:58:45;;;;;;;7.87;5.30;;;14.50;95.80;;;;;;4969239;28;20458;-66
2022/05/04 04:01:12;;;;;;;6.17;5.20;;;14.50;95.60;;;;;;4970792;28;20544;-67
2022/05/04 04:03:38;;;;;;;6.33;5.73;;;14.50;95.50;;;;;;4969608;28;20890;-67
2022/05/04 04:06:04;;;;;;;6.77;5.80;;;14.50;95.50;;;;;;4981492;28;20458;-67
2022/05/04 04:08:30;;;;;;;6.80;5.80;;;14.50;95.50;;;;;;4980061;28;20543;-66
2022/05/04 04:10:57;;;;;;;9.50;6.80;;;14.50;95.60;;;;;;4984198;28;20517;-67
2022/05/04 04:13:23;;;;;;;8.47;5.53;;;14.50;95.60;;;;;;4966781;28;20292;-67
2022/05/04 04:15:51;;;;;;;6.70;5.20;;;14.50;95.50;;;;;;4965908;28;20986;-67
2022/05/04 04:18:21;;;;;;;9.50;6.43;;;14.50;95.60;;;;;;4966913;28;20517;-67
2022/05/04 04:23:32;;;;;;;7.07;5.70;;;14.50;95.60;;;;;;4984172;28;20466;-66
2022/05/04 04:25:58;;;;;;;5.87;5.10;;;14.40;95.50;;;;;;4972941;28;20457;-67
2022/05/04 04:28:25;;;;;;;4.70;4.20;;;14.40;95.50;;;;;;4988292;28;21072;-68
2022/05/04 04:30:51;;;;;;;4.87;4.43;;;14.40;95.60;;;;;;4988403;28;20230;-67
2022/05/04 04:33:17;;;;;;;5.17;4.67;;;14.30;95.50;;;;;;4987199;28;20850;-68
2022/05/04 04:35:43;;;;;;;5.30;4.80;;;14.30;95.60;;;;;;4987633;28;20578;-67
2022/05/04 04:38:08;;;;;;;5.37;4.87;;;14.40;95.90;;;;;;4987308;28;20221;-68
2022/05/04 04:40:34;;;;;;;5.43;4.93;;;14.40;96.00;;;;;;4981186;28;20476;-66
2022/05/04 04:43:03;;;;;;;6.50;5.20;;;14.30;96.00;;;;;;4980922;28;20605;-67
2022/05/04 04:45:30;;;;;;;7.93;5.50;;;14.30;96.20;;;;;;4969956;28;20214;-68
2022/05/04 04:47:58;;;;;;;6.90;5.20;;;14.20;96.30;;;;;;4966041;28;20465;-69
2022/05/04 04:50:24;;;;;;;7.30;5.00;;;14.10;96.50;;;;;;4987725;28;20472;-69
2022/05/04 04:52:50;;;;;;;6.10;5.20;;;14.20;96.50;;;;;;4988127;28;20523;-68
2022/05/04 04:55:16;;;;;;;6.43;5.70;;;14.20;96.50;;;;;;4972603;28;20269;-68
2022/05/04 04:57:41;;;;;;;5.80;4.70;;;14.20;96.60;;;;;;4985448;28;20225;-67
2022/05/04 05:00:07;;;;;;;5.70;5.10;;;14.20;96.60;;;;;;4982398;28;20246;-65
2022/05/04 05:02:36;;;;;;;10.13;5.60;;;14.20;96.70;;;;;;4998165;28;20226;-69
2022/05/04 05:05:02;;;;;;;5.20;4.70;;;14.20;96.60;;;;;;4994122;28;20536;-69
2022/05/04 05:07:31;;;;;;;7.17;5.40;;;14.20;96.50;;;;;;4971772;28;20830;-68
2022/05/04 05:09:57;;;;;;;7.73;5.53;;;14.20;96.50;;;;;;4972537;28;20810;-68
2022/05/04 05:12:23;;;;;;;5.90;5.23;;;14.20;96.70;;;;;;4974686;28;20533;-68
2022/05/04 05:17:35;;;;;;;7.07;5.57;;;14.20;96.60;;;;;;4969763;28;20719;-69
2022/05/04 05:20:03;;;;;;;7.43;6.40;;;14.20;96.50;;;;;;4973148;28;20489;-68
2022/05/04 05:22:29;;;;;;;7.60;5.70;;;14.20;96.60;;;;;;4973021;28;20461;-67
2022/05/04 05:24:55;;;;;;;5.57;5.00;;;14.20;96.60;;;;;;4969915;28;20474;-67
2022/05/04 05:27:23;;;;;;;5.20;4.60;;;14.20;96.70;;;;;;4968958;28;20520;-67
2022/05/04 05:29:49;;;;;;;6.33;5.27;;;14.20;96.90;;;;;;4984225;28;20230;-67
2022/05/04 05:32:15;;;;;;;6.00;4.80;;;14.20;96.90;;;;;;4970959;28;20509;-68
2022/05/04 05:34:41;;;;;;;6.30;4.83;;;14.30;96.70;;;;;;4973365;28;20492;-67
2022/05/04 05:37:06;;;;;;;4.90;4.40;;;14.30;97.10;;;;;;4978539;28;20225;-69
2022/05/04 05:39:33;;;;;;;5.47;4.50;;;14.30;97.10;;;;;;4968819;28;20254;-68
2022/05/04 05:41:59;;;;;;;9.40;5.10;;;14.30;97.10;;;;;;4974346;28;20709;-68
2022/05/04 05:44:25;;;;;;;7.03;5.20;;;14.30;97.30;;;;;;4970151;28;20914;-69
2022/05/04 05:46:51;;;;;;;6.30;5.47;;;14.30;97.30;;;;;;4978530;28;20449;-68
2022/05/04 05:49:17;;;;;;;6.10;5.50;;;14.30;97.30;;;;;;4971994;28;20488;-69
2022/05/04 05:51:42;;;;;;;6.53;4.37;;;14.30;97.30;;;;;;4972342;28;20214;-68
2022/05/04 05:54:08;;;;;;;5.20;4.70;;;14.40;97.30;;;;;;4970896;28;20217;-69
2022/05/04 05:56:34;;;;;;;5.43;4.83;;;14.40;97.50;;;;;;4973405;28;20719;-67
2022/05/04 05:59:00;;;;;;;7.07;4.50;;;14.40;97.70;;;;;;4968201;28;20466;-69
2022/05/04 06:01:26;;;;;;;6.47;5.30;;;14.40;97.80;;;;;;4953644;28;20226;-69
2022/05/04 06:03:52;;;;;;;7.13;5.30;;;14.40;98.00;;;;;;4969487;28;20894;-68
2022/05/04 06:06:18;;;;;;;7.47;4.70;;;14.40;98.00;;;;;;4971789;28;20218;-67
2022/05/04 06:08:44;;;;;;;7.27;5.50;;;14.50;98.10;;;;;;4969184;28;20458;-69
2022/05/04 06:11:10;;;;;;;7.50;5.30;;;14.40;98.60;;;;;;4972202;28;20513;-69
2022/05/04 06:13:36;;;;;;;8.03;5.40;;;14.50;98.40;;;;;;4970148;28;20226;-70
2022/05/04 06:16:01;;;;;;;7.53;5.77;;;14.50;98.60;;;;;;4970096;28;20241;-69
2022/05/04 06:18:27;;;;;;;6.10;5.50;;;14.50;98.60;;;;;;4970820;28;20222;-69
2022/05/04 06:20:53;;;;;;;6.43;4.63;;;14.50;98.40;;;;;;4968992;28;20241;-69
2022/05/04 06:23:18;;;;;;;6.00;5.07;;;14.50;98.60;;;;;;4970277;28;20276;-69
2022/05/04 06:25:45;;;;;;;5.70;4.97;;;14.50;98.30;;;;;;4969429;28;20222;-68
2022/05/04 06:28:14;;;;;;;5.57;4.70;;;14.60;98.40;;;;;;4971143;28;20230;-68
2022/05/04 06:36:08;;;;;;;8.67;4.83;;;14.60;98.40;;;;;;4967978;28;20512;-69
2022/05/04 06:38:34;;;;;;;6.63;4.50;;;14.60;98.60;;;;;;4966723;28;20458;-66
2022/05/04 06:41:00;;;;;;;6.20;4.50;;;14.70;98.60;;;;;;4967533;28;20244;-69
2022/05/04 06:43:27;;;;;;;6.17;5.30;;;14.70;98.70;;;;;;4969379;28;20229;-69
2022/05/04 06:45:52;;;;;;;6.43;5.20;;;14.80;98.80;;;;;;4966338;28;20476;-69
2022/05/04 06:48:18;;;;;;;8.37;5.20;;;14.80;99.00;;;;;;4966556;28;20465;-69
2022/05/04 06:50:44;;;;;;;6.30;5.63;;;14.80;99.00;;;;;;4968512;28;20230;-69
2022/05/04 06:53:09;;;;;;;6.53;5.00;;;14.90;99.20;;;;;;4967647;28;20242;-69
2022/05/04 06:55:35;;;;;;;5.60;5.00;;;15.00;99.40;;;;;;4967303;28;20222;-68
2022/05/04 06:58:01;;;;;;;9.33;5.50;;;15.00;99.20;;;;;;4967188;28;20234;-70
2022/05/04 07:00:26;;;;;;;5.93;5.13;;;15.00;99.20;;;;;;4973194;28;20223;-69
2022/05/04 07:02:52;;;;;;;5.50;4.90;;;15.10;99.30;;;;;;4968625;28;20227;-69
2022/05/04 07:05:18;;;;;;;5.70;4.83;;;15.20;99.30;;;;;;4968421;28;20592;-67
2022/05/04 07:07:43;;;;;;;5.47;4.73;;;15.20;99.30;;;;;;4968736;28;20281;-67
2022/05/04 07:10:09;;;;;;;6.00;4.80;;;15.20;99.10;;;;;;4968770;28;20226;-69
2022/05/04 07:12:35;;;;;;;5.27;4.73;;;15.20;99.30;;;;;;4969764;28;20241;-67
2022/05/04 07:15:01;;;;;;;9.70;4.70;;;15.30;99.20;;;;;;4969222;28;20218;-68
2022/05/04 07:17:27;;;;;;;5.83;5.30;;;15.40;99.20;;;;;;4972965;28;20211;-67
2022/05/04 07:19:53;;;;;;;8.23;4.30;;;15.40;99.30;;;;;;4965320;28;20230;-68
2022/05/04 07:22:19;;;;;;;5.97;5.30;;;15.40;99.20;;;;;;4963982;28;20512;-68
2022/05/04 07:24:45;;;;;;;6.50;5.30;;;15.50;99.30;;;;;;4965021;28;20470;-68
2022/05/04 07:27:11;;;;;;;7.83;5.70;;;15.60;99.50;;;;;;4965674;28;20257;-68
2022/05/04 07:29:37;;;;;;;6.80;5.60;;;15.60;99.40;;;;;;4965324;28;21014;-70
2022/05/04 07:32:03;;;;;;;6.50;4.80;;;15.60;99.40;;;;;;4961245;28;21045;-67
2022/05/04 07:34:30;;;;;;;8.73;5.43;;;15.70;99.30;;;;;;4966380;28;20516;-69
2022/05/04 07:36:58;;;;;;;8.60;4.97;;;15.70;99.10;;;;;;4968369;28;20452;-69
2022/05/04 07:42:24;;;;;;;6.10;5.50;;;15.80;99.10;;;;;;4966178;28;20466;-69
2022/05/04 07:45:12;;;;;;;6.00;5.40;;;15.80;99.20;;;;;;4978114;28;20493;-69
2022/05/04 07:47:39;;;;;;;6.20;5.00;;;15.80;99.40;;;;;;4966950;28;20508;-69
2022/05/04 07:50:07;;;;;;;6.13;5.53;;;15.90;99.30;;;;;;4962794;28;20501;-69
2022/05/04 07:52:34;;;;;;;8.63;6.07;;;16.00;99.40;;;;;;4969269;28;20470;-69
2022/05/04 07:55:00;;;;;;;7.27;5.60;;;16.00;99.40;;;;;;4980714;28;20526;-69
2022/05/04 07:57:26;;;;;;;7.00;5.53;;;16.00;99.40;;;;;;4967353;28;20959;-68
2022/05/04 08:05:22;;;;;;;6.33;5.33;;;16.10;99.30;;;;;;4968509;28;20597;-69
2022/05/04 08:07:48;;;;;;;12.10;5.33;;;16.10;99.10;;;;;;4968060;28;20472;-68
2022/05/04 08:10:13;;;;;;;5.97;5.37;;;16.10;99.20;;;;;;4969034;28;20470;-69
2022/05/04 08:12:39;;;;;;;9.60;6.23;;;16.20;99.10;;;;;;4950995;28;20286;-68
2022/05/04 08:15:06;;;;;;;7.53;6.40;;;16.20;99.10;;;;;;4969066;28;20222;-69
2022/05/04 08:17:32;;;;;;;7.40;5.70;;;16.20;99.10;;;;;;4964391;28;20226;-69
2022/05/04 08:19:58;;;;;;;6.70;5.43;;;16.20;99.10;;;;;;4967396;28;20460;-69
2022/05/04 08:22:23;;;;;;;6.13;5.20;;;16.30;99.20;;;;;;4978040;28;20233;-69
2022/05/04 08:24:49;;;;;;;8.57;6.17;;;16.30;99.10;;;;;;4968232;28;20453;-67
2022/05/04 08:27:15;;;;;;;8.57;5.60;;;16.30;99.20;;;;;;4966705;28;20262;-69
2022/05/04 08:29:41;;;;;;;5.57;5.10;;;16.40;99.30;;;;;;4964817;28;20314;-69
2022/05/04 08:32:07;;;;;;;6.50;5.83;;;16.40;99.10;;;;;;4968917;28;20233;-68
2022/05/04 08:34:32;;;;;;;8.33;5.90;;;16.40;99.00;;;;;;4967025;28;20683;-69
2022/05/04 08:36:58;;;;;;;6.20;5.60;;;16.40;99.30;;;;;;4951008;28;20482;-69
2022/05/04 08:39:24;;;;;;;6.90;5.87;;;16.50;99.20;;;;;;4965588;28;20477;-69
2022/05/04 08:41:51;;;;;;;12.33;6.47;;;16.50;99.10;;;;;;4967657;28;20273;-69
2022/05/04 08:44:18;;;;;;;8.57;5.70;;;16.60;99.20;;;;;;4967976;28;20710;-69
2022/05/04 08:46:44;;;;;;;8.63;5.90;;;16.60;99.00;;;;;;4951294;28;20457;-67
2022/05/04 08:49:12;;;;;;;6.83;5.50;;;16.70;99.30;;;;;;4967653;28;20464;-69
2022/05/04 08:51:39;;;;;;;7.13;5.70;;;16.80;99.40;;;;;;4968509;28;20548;-69
2022/05/04 08:54:07;;;;;;;12.03;5.50;;;16.80;99.30;;;;;;4968658;28;20549;-70
2022/05/04 08:56:34;;;;;;;8.40;5.80;;;17.00;99.90;;;;;;4964912;28;20841;-68
2022/05/04 08:59:04;;;;;;;8.10;6.80;;;17.10;99.10;;;;;;4966581;28;20462;-70
2022/05/04 09:01:32;;;;;;;8.20;6.73;;;17.10;99.10;;;;;;4965864;28;20466;-68
2022/05/04 09:03:59;;;;;;;5.83;5.23;;;17.20;99.50;;;;;;4963236;28;20470;-69
2022/05/04 09:06:33;;;;;;;6.70;5.90;;;17.40;99.40;;;;;;4966988;28;20458;-69
2022/05/04 09:09:10;;;;;;;8.60;6.30;;;17.50;99.10;;;;;;4963242;28;20462;-68
2022/05/04 09:11:41;;;;;;;6.57;5.97;;;17.50;99.10;;;;;;4963697;28;20469;-68
2022/05/04 09:14:20;;;;;;;6.67;6.03;;;17.60;99.30;;;;;;4964221;28;20469;-69
2022/05/04 09:16:47;;;;;;;6.30;5.50;;;17.70;99.30;;;;;;4964933;28;20460;-68
2022/05/04 09:19:15;;;;;;;6.57;5.80;;;17.90;99.60;;;;;;4965036;28;20925;-68
2022/05/04 09:21:41;;;;;;;6.00;5.47;;;18.10;99.50;;;;;;4958276;28;20463;-68
2022/05/04 09:24:08;;;;;;;8.37;5.30;;;18.10;99.40;;;;;;4964909;28;20450;-69
2022/05/04 09:26:44;;;;;;;6.00;5.40;;;18.20;99.40;;;;;;4948775;28;20462;-70
2022/05/04 09:29:14;;;;;;;6.80;5.73;;;18.30;98.90;;;;;;4982544;28;21001;-69
2022/05/04 09:31:44;;;;;;;6.53;5.93;;;18.30;98.70;;;;;;4969648;28;20454;-68
2022/05/04 09:34:10;;;;;;;6.77;5.47;;;18.40;98.90;;;;;;4954708;28;20875;-69
2022/05/04 09:44:54;;;;;;;6.03;5.43;;;18.50;99.00;;;;;;4968318;28;20466;-68
2022/05/04 09:45:15;;;;;;;6.60;5.80;;;18.50;98.60;;;;;;4968838;28;20542;-69
2022/05/04 09:47:44;;;;;;;8.53;5.83;;;18.60;98.50;;;;;;4969475;28;20450;-69
2022/05/04 09:50:12;;;;;;;8.90;5.97;;;18.70;98.90;;;;;;4965923;28;20454;-69
2022/05/04 09:52:44;;;;;;;7.50;5.20;;;18.80;98.80;;;;;;4968529;28;20514;-68
2022/05/04 09:55:14;;;;;;;8.53;5.70;;;19.00;99.00;;;;;;4967291;28;20508;-69
2022/05/04 09:57:44;;;;;;;5.97;5.43;;;19.10;99.00;;;;;;4950732;28;20545;-68
2022/05/04 10:00:12;;;;;;;6.50;5.57;;;19.30;99.10;;;;;;4966522;28;20465;-69
2022/05/04 10:02:39;;;;;;;6.00;5.50;;;19.50;98.90;;;;;;4964630;28;20454;-69
2022/05/04 10:05:05;;;;;;;6.60;5.97;;;19.70;98.80;;;;;;4961267;28;20490;-69
2022/05/04 10:07:31;;;;;;;6.20;5.60;;;19.80;98.70;;;;;;4963982;28;20469;-69
2022/05/04 10:09:57;;;;;;;6.17;5.57;;;20.00;98.90;;;;;;4965744;28;20816;-69
2022/05/04 10:12:26;;;;;;;6.87;6.07;;;20.10;98.60;;;;;;4967032;28;20540;-69
2022/05/04 10:14:54;;;;;;;6.20;5.60;;;20.00;98.20;;;;;;4962030;28;20342;-68
2022/05/04 10:17:25;;;;;;;5.53;5.03;;;20.00;98.00;;;;;;4951340;28;20464;-69
2022/05/04 10:20:11;;;;;;;5.40;4.90;;;20.10;98.20;;;;;;4963934;28;20463;-69
2022/05/04 10:22:55;;;;;;;5.27;4.80;;;20.00;96.70;;;;;;4968661;28;20461;-66
2022/05/04 10:25:22;;;;;;;5.50;5.00;;;20.10;97.80;;;;;;4971063;28;20497;-69
2022/05/04 10:27:48;;;;;;;5.30;4.90;;;20.30;97.70;;;;;;4950839;28;20883;-68
2022/05/04 10:30:32;;;;;;;6.13;4.70;;;20.40;97.60;;;;;;4970990;28;20520;-69
2022/05/04 10:33:08;;;;;;;5.30;4.90;;;20.50;97.80;;;;;;4964535;28;20252;-68
2022/05/04 10:35:41;;;;;;;4.97;4.57;;;20.50;97.30;;;;;;4950006;28;20526;-69
2022/05/04 10:38:12;;;;;;;5.53;5.07;;;20.60;97.50;;;;;;4968168;28;20826;-67
2022/05/04 10:40:59;;;;;;;6.00;5.50;;;20.50;96.70;;;;;;4966153;28;20481;-70
2022/05/04 10:43:57;;;;;;;4.77;4.33;;;20.50;96.90;;;;;;4966621;28;20458;-69
2022/05/04 10:46:24;;;;;;;5.53;4.77;;;20.60;97.10;;;;;;4972802;28;20464;-69
2022/05/04 10:48:56;;;;;;;6.23;4.57;;;20.80;96.90;;;;;;4967079;28;21027;-68
2022/05/04 10:51:24;;;;;;;4.90;4.50;;;20.90;96.60;;;;;;4986142;28;20911;-68
2022/05/04 10:53:53;;;;;;;4.53;4.13;;;21.10;97.60;;;;;;4986581;28;20504;-68
2022/05/04 10:56:26;;;;;;;5.17;4.77;;;21.30;97.00;;;;;;4988201;28;20457;-68
2022/05/04 10:59:01;;;;;;;5.20;4.63;;;21.40;97.00;;;;;;4984665;28;20465;-69
2022/05/04 11:01:30;;;;;;;4.63;4.23;;;21.50;97.00;;;;;;4986329;28;20457;-69
2022/05/04 11:04:11;;;;;;;7.53;5.70;;;21.60;96.90;;;;;;4985451;28;20829;-69
2022/05/04 11:06:44;;;;;;;4.70;4.30;;;21.70;96.80;;;;;;5001051;28;20841;-69
2022/05/04 11:09:18;;;;;;;5.17;4.67;;;21.80;96.80;;;;;;4983740;28;20464;-69
2022/05/04 11:11:46;;;;;;;5.23;4.67;;;21.80;96.10;;;;;;4983762;28;20457;-68
2022/05/04 11:14:13;;;;;;;5.30;4.90;;;21.80;96.10;;;;;;4979482;28;20483;-68
2022/05/04 11:16:40;;;;;;;5.17;4.77;;;21.70;95.90;;;;;;4986345;28;20464;-69
2022/05/04 11:19:07;;;;;;;5.10;4.70;;;21.90;95.60;;;;;;4986231;28;20476;-70
2022/05/04 11:21:34;;;;;;;5.13;4.70;;;21.90;95.50;;;;;;4986180;28;20511;-69
2022/05/04 11:24:03;;;;;;;4.97;4.33;;;22.00;95.50;;;;;;4991233;28;20471;-69
2022/05/04 11:26:44;;;;;;;5.93;5.43;;;22.10;94.90;;;;;;4985060;28;20460;-70
2022/05/04 11:29:25;;;;;;;5.33;4.83;;;22.00;94.40;;;;;;4982053;28;20469;-70
2022/05/04 11:31:54;;;;;;;4.73;4.30;;;22.10;95.10;;;;;;4956753;28;21045;-70
2022/05/04 11:34:31;;;;;;;5.40;5.00;;;22.10;93.60;;;;;;4966265;28;20465;-69
2022/05/04 11:37:03;;;;;;;5.07;4.57;;;22.10;94.80;;;;;;4965979;28;20452;-69
2022/05/04 11:39:30;;;;;;;5.23;4.83;;;22.30;94.40;;;;;;4962258;28;20466;-70
2022/05/04 11:41:59;;;;;;;5.63;5.13;;;22.20;93.80;;;;;;4983603;28;20524;-67
2022/05/04 11:44:26;;;;;;;5.30;4.80;;;22.30;94.60;;;;;;4972953;28;20480;-68
2022/05/04 11:46:53;;;;;;;5.17;4.77;;;22.30;93.40;;;;;;4981749;28;20453;-69
2022/05/04 11:49:21;;;;;;;6.67;4.73;;;22.20;94.00;;;;;;4983247;28;20534;-69
2022/05/04 11:51:47;;;;;;;5.47;4.10;;;22.40;93.90;;;;;;4991263;28;20456;-70
2022/05/04 11:54:13;;;;;;;5.20;4.70;;;22.60;94.40;;;;;;4985248;28;21064;-69
2022/05/04 11:56:39;;;;;;;5.17;4.77;;;22.90;94.10;;;;;;4983963;28;20452;-70
2022/05/04 11:59:07;;;;;;;5.27;4.77;;;23.00;94.00;;;;;;4981730;28;20535;-70
2022/05/04 12:01:34;;;;;;;4.93;4.53;;;23.10;93.80;;;;;;4997105;28;20268;-68
2022/05/04 12:04:00;;;;;;;5.70;4.00;;;23.10;93.90;;;;;;4983355;28;20460;-69
2022/05/04 12:06:27;;;;;;;5.30;4.90;;;23.20;94.20;;;;;;5002039;28;20784;-69
2022/05/04 12:08:54;;;;;;;5.97;5.40;;;23.30;94.10;;;;;;4987027;28;20471;-70
2022/05/04 12:11:21;;;;;;;6.13;5.53;;;23.30;94.00;;;;;;4988053;28;20858;-68
2022/05/04 12:13:47;;;;;;;5.30;4.93;;;23.30;93.80;;;;;;4987478;28;20563;-69
2022/05/04 12:16:13;;;;;;;5.57;5.07;;;23.20;93.20;;;;;;4987501;28;20507;-69
2022/05/04 12:18:39;;;;;;;4.10;3.80;;;23.10;93.20;;;;;;4987329;28;20463;-70
2022/05/04 12:21:12;;;;;;;7.13;4.60;;;23.20;93.70;;;;;;4987264;28;20528;-69
2022/05/04 12:23:41;;;;;;;5.20;4.30;;;23.20;93.40;;;;;;4982162;28;20459;-67
2022/05/04 12:26:10;;;;;;;4.23;3.93;;;23.30;93.70;;;;;;4980902;28;20453;-69
2022/05/04 12:28:37;;;;;;;4.23;3.93;;;23.60;93.80;;;;;;4984389;28;20460;-69
2022/05/04 12:33:50;;;;;;;5.20;4.67;;;23.70;93.40;;;;;;5000767;28;20469;-69
2022/05/04 12:36:18;;;;;;;8.47;5.23;;;23.90;93.10;;;;;;4988391;28;20455;-69
2022/05/04 12:38:49;;;;;;;5.57;5.07;;;24.00;92.40;;;;;;4981685;28;20578;-68
2022/05/04 12:41:21;;;;;;;5.00;4.60;;;24.10;92.50;;;;;;4986406;28;20460;-69
2022/05/04 12:43:49;;;;;;;4.97;4.60;;;24.20;92.20;;;;;;4986841;28;21003;-69
2022/05/04 12:46:16;;;;;;;4.87;4.47;;;24.20;92.60;;;;;;4986699;28;20515;-67
2022/05/04 12:48:47;;;;;;;5.40;4.90;;;24.30;92.30;;;;;;4995375;28;20465;-69
2022/05/04 12:51:16;;;;;;;4.90;4.53;;;24.20;91.60;;;;;;4995094;28;20490;-69
2022/05/04 12:53:44;;;;;;;4.60;4.27;;;24.00;91.50;;;;;;4982153;28;20483;-69
2022/05/04 12:58:54;;;;;;;5.27;4.87;;;23.90;91.80;;;;;;4978844;28;20624;-69
2022/05/04 13:01:24;;;;;;;5.53;5.13;;;24.00;91.70;;;;;;4981350;28;20522;-69
2022/05/04 13:03:50;;;;;;;5.50;5.00;;;23.90;92.20;;;;;;4988447;28;21199;-69
2022/05/04 13:06:20;;;;;;;5.70;5.20;;;23.80;91.20;;;;;;4993628;28;20559;-69
2022/05/04 13:08:48;;;;;;;4.90;4.57;;;23.60;91.50;;;;;;4998588;28;20445;-68
2022/05/04 13:11:14;;;;;;;4.77;4.47;;;23.60;91.90;;;;;;4990041;28;20461;-69
2022/05/04 13:13:40;;;;;;;4.23;3.93;;;23.70;92.30;;;;;;5006954;28;20488;-68
2022/05/04 13:16:06;;;;;;;5.70;5.30;;;23.80;92.00;;;;;;4990122;28;20996;-70
2022/05/04 13:18:31;;;;;;;4.97;4.67;;;23.80;91.80;;;;;;4987438;28;20232;-68
2022/05/04 13:20:57;;;;;;;5.50;5.10;;;23.80;91.20;;;;;;4998958;28;20229;-70